Mir — UFPV — position and weather

sailwx.info

Track history (hours):
 
Tides and Currents Weather Stations Pressure Air Temp Water Temp Dewpoint Dewpoint Depression Visibility Wind Speed Wind Dir Waves Ship Positions

Mir (Russia)

Last reported at 2017-Sep-21 20:01 UTC. Time now 2017-Sep-23 09:32 UTC.
Position N 54°47' E 015°20'.

Length 109 m; draft 6.3 m.

Type: Sailing vessel. MMSI: 273133800.

Date/timePositionNaut miles runAvg speedWind from/ knotsBaromVisibWave heightAir tempDewpointWater temp
2017-Sep-21 20:01N 54°47' E 015°20'0 4.4
2017-Sep-21 20:00N 54°47' E 015°20'2 4.5
2017-Sep-21 19:29N 54°45' E 015°17'2 4.7
2017-Sep-21 18:59N 54°44' E 015°14'7 1.0
2017-Sep-21 12:24N 54°43' E 015°03'2 3.9
2017-Sep-21 11:58N 54°43' E 015°00'3 4.7
2017-Sep-21 11:26N 54°42' E 014°56'62 5.3
2017-Sep-20 23:37N 54°47' E 013°09'1 3.3
2017-Sep-20 23:21N 54°47' E 013°07'13 3.8
2017-Sep-20 20:02N 54°44' E 012°46'0 4.4
2017-Sep-20 20:00N 54°44' E 012°46'7 5.0
2017-Sep-20 18:32N 54°41' E 012°34'0 5.8
2017-Sep-20 18:30N 54°40' E 012°34'3 6.0
2017-Sep-20 18:00N 54°38' E 012°31'4 7.0
2017-Sep-20 17:30N 54°36' E 012°27'10 6.4
2017-Sep-20 16:02N 54°29' E 012°15'0 6.6
2017-Sep-20 16:00N 54°29' E 012°15'3 6.2
2017-Sep-20 15:30N 54°26' E 012°12'3 5.1
2017-Sep-20 15:00N 54°25' E 012°08'10 6.1
2017-Sep-20 13:17N 54°24' E 011°50'2 6.6
2017-Sep-20 13:00N 54°24' E 011°47'4 7.2
2017-Sep-20 12:30N 54°25' E 011°41'3 6.5
2017-Sep-20 12:00N 54°27' E 011°37'3 6.6
2017-Sep-20 11:30N 54°28' E 011°32'3 5.8
2017-Sep-20 11:00N 54°30' E 011°27'3 6.0
2017-Sep-20 10:30N 54°31' E 011°23'3 6.4
2017-Sep-20 09:59N 54°33' E 011°18'3 7.1
2017-Sep-20 09:30N 54°34' E 011°12'3 6.5
2017-Sep-20 09:00N 54°36' E 011°07'3 6.9
2017-Sep-20 08:30N 54°38' E 011°02'3 6.9
2017-Sep-20 08:00N 54°40' E 010°58'3 6.4
2017-Sep-20 07:30N 54°42' E 010°53'3 5.1
2017-Sep-20 07:00N 54°44' E 010°52'3 6.5
2017-Sep-20 06:30N 54°47' E 010°52'3 6.4
2017-Sep-20 06:00N 54°50' E 010°52'3 6.0
2017-Sep-20 05:30N 54°53' E 010°53'3 5.7
2017-Sep-20 05:00N 54°56' E 010°55'3 5.7
2017-Sep-20 04:30N 54°58' E 010°58'3 5.9
2017-Sep-20 04:00N 55°01' E 011°01'2 4.4
2017-Sep-20 03:30N 55°03' E 011°01'3 5.5
2017-Sep-20 03:00N 55°06' E 011°02'3 6.3
2017-Sep-20 02:30N 55°09' E 011°03'3 6.0
2017-Sep-20 02:00N 55°12' E 011°05'110 5.8
2017-Sep-19 06:55N 56°60' E 011°42'4 8.4
2017-Sep-19 06:27N 57°03' E 011°40'4 8.8
2017-Sep-19 06:00N 57°07' E 011°37'4 8.7
2017-Sep-19 05:30N 57°11' E 011°35'4 8.4
2017-Sep-19 05:00N 57°15' E 011°32'4 7.6
2017-Sep-19 04:30N 57°19' E 011°29'4 7.3
2017-Sep-19 04:00N 57°22' E 011°27'4 7.8
2017-Sep-19 03:30N 57°26' E 011°24'4 7.3
2017-Sep-19 03:00N 57°29' E 011°21'4 7.2
2017-Sep-19 02:29N 57°32' E 011°18'4 7.8
2017-Sep-19 01:59N 57°36' E 011°15'4 8.0
2017-Sep-19 01:30N 57°39' E 011°11'4 7.6
2017-Sep-19 01:00N 57°42' E 011°06'4 7.0
2017-Sep-19 00:29N 57°45' E 011°02'3 6.2
2017-Sep-19 00:00N 57°47' E 010°59'3 6.6
2017-Sep-18 23:30N 57°50' E 010°55'3 6.8
2017-Sep-18 23:00N 57°53' E 010°52'3 6.1
2017-Sep-18 22:30N 57°55' E 010°49'3 5.7
2017-Sep-18 21:57N 57°58' E 010°45'3 5.7
2017-Sep-18 21:25N 58°00' E 010°41'18 6.1
2017-Sep-18 18:27N 58°15' E 010°23'3 0.5
2017-Sep-18 12:47N 58°16' E 010°18'0 0.4
2017-Sep-18 12:20N 58°16' E 010°18'0 0.2
2017-Sep-18 11:54N 58°16' E 010°18'1 0.2
2017-Sep-18 09:46N 58°16' E 010°17'1 0.4
2017-Sep-18 08:01N 58°15' E 010°19'0 0.4
2017-Sep-18 08:00N 58°15' E 010°19'0 0.5
2017-Sep-18 07:02N 58°15' E 010°19'0 0.5
2017-Sep-18 06:59N 58°15' E 010°19'0 0.5
2017-Sep-18 06:25N 58°16' E 010°20'1 0.7
2017-Sep-18 05:07N 58°16' E 010°22'0 1.6
2017-Sep-18 05:00N 58°16' E 010°22'1 1.7
2017-Sep-18 04:17N 58°17' E 010°22'1 2.2
2017-Sep-18 03:50N 58°18' E 010°22'1 2.5
2017-Sep-18 03:27N 58°19' E 010°22'1 2.4
2017-Sep-18 03:00N 58°20' E 010°22'1 2.5
2017-Sep-18 02:30N 58°21' E 010°22'2 2.4
2017-Sep-18 01:52N 58°23' E 010°22'1 2.6
2017-Sep-18 01:30N 58°24' E 010°23'2 2.8
2017-Sep-18 00:58N 58°25' E 010°23'4 3.3
2017-Sep-17 23:39N 58°30' E 010°23'5 3.5
2017-Sep-17 22:19N 58°34' E 010°22'1 3.1
2017-Sep-17 21:59N 58°35' E 010°22'1 2.8
2017-Sep-17 21:29N 58°37' E 010°22'1 2.7
2017-Sep-17 21:00N 58°38' E 010°22'1 2.6
2017-Sep-17 20:30N 58°39' E 010°22'1 1.6
2017-Sep-17 20:00N 58°40' E 010°23'1 1.3
2017-Sep-17 19:30N 58°41' E 010°22'1 1.9
2017-Sep-17 19:00N 58°42' E 010°23'1 2.3
2017-Sep-17 18:30N 58°43' E 010°23'0 0.8
2017-Sep-17 18:00N 58°43' E 010°24'0 0.7
2017-Sep-17 17:30N 58°43' E 010°24'0 0.5
2017-Sep-17 17:00N 58°43' E 010°25'0 0.2
2017-Sep-17 16:30N 58°43' E 010°25'0 0.3
2017-Sep-17 16:00N 58°43' E 010°25'1 1.4
2017-Sep-17 15:30N 58°44' E 010°26'4 8.1
2017-Sep-17 15:00N 58°47' E 010°29'4 8.1
2017-Sep-17 14:30N 58°51' E 010°33'4 8.3
2017-Sep-17 14:00N 58°54' E 010°37'4 8.4
2017-Sep-17 13:30N 58°58' E 010°41'4 8.0
2017-Sep-17 13:00N 59°02' E 010°44'4 7.5
2017-Sep-17 12:30N 59°01' E 010°52'3 6.8
2017-Sep-17 12:00N 59°02' E 010°58'4 7.6
2017-Sep-17 11:30N 59°06' E 010°58'4 7.4
2017-Sep-17 11:00N 59°09' E 010°58'2 4.7
2017-Sep-17 10:30N 59°12' E 010°57'1 1.1
2017-Sep-17 09:58N 59°12' E 010°57'0 0.0
2017-Sep-17 09:28N 59°12' E 010°57'0 0.0
2017-Sep-17 08:58N 59°12' E 010°57'0 0.0
2017-Sep-17 08:28N 59°12' E 010°57'0 0.0
2017-Sep-17 07:58N 59°12' E 010°57'0 0.0
2017-Sep-17 07:28N 59°12' E 010°57'0 0.0
2017-Sep-17 06:58N 59°12' E 010°57'0 0.0
2017-Sep-17 06:28N 59°12' E 010°57'0 0.0
2017-Sep-17 05:58N 59°12' E 010°57'0 0.0
2017-Sep-17 05:28N 59°12' E 010°57'0 0.0
2017-Sep-17 04:58N 59°12' E 010°57'0 0.0
2017-Sep-17 04:28N 59°12' E 010°57'0 0.0
2017-Sep-17 03:58N 59°12' E 010°57'0 0.0
2017-Sep-17 03:28N 59°12' E 010°57'0 0.0
2017-Sep-17 02:58N 59°12' E 010°57'0 0.0
2017-Sep-17 02:28N 59°12' E 010°57'0 0.0
2017-Sep-17 01:58N 59°12' E 010°57'0 0.0
2017-Sep-17 01:28N 59°12' E 010°57'0 0.0
2017-Sep-17 00:58N 59°12' E 010°57'0 0.0
2017-Sep-17 00:28N 59°12' E 010°57'0 0.0
2017-Sep-16 23:58N 59°12' E 010°57'0 0.0
2017-Sep-16 23:28N 59°12' E 010°57'0 0.0
2017-Sep-16 22:58N 59°12' E 010°57'0 0.0
2017-Sep-16 22:28N 59°12' E 010°57'0 0.0
2017-Sep-16 21:55N 59°12' E 010°57'0 0.0
2017-Sep-16 21:28N 59°12' E 010°57'0 0.0
2017-Sep-16 20:58N 59°12' E 010°57'0 0.0
2017-Sep-16 20:28N 59°12' E 010°57'0 0.0
2017-Sep-16 19:58N 59°12' E 010°57'0 0.0
2017-Sep-16 19:28N 59°12' E 010°57'0 0.0
2017-Sep-16 18:58N 59°12' E 010°57'0 0.0
2017-Sep-16 18:28N 59°12' E 010°57'0 0.0
2017-Sep-16 17:58N 59°12' E 010°57'0 0.0
2017-Sep-16 17:28N 59°12' E 010°57'0 0.0
2017-Sep-16 16:58N 59°12' E 010°57'0 0.0
2017-Sep-16 16:28N 59°12' E 010°57'0 0.0
2017-Sep-16 15:58N 59°12' E 010°57'0 0.0
2017-Sep-16 15:28N 59°12' E 010°57'0 0.0
2017-Sep-16 14:58N 59°12' E 010°57'0 0.0
2017-Sep-16 14:28N 59°12' E 010°57'0 0.0
2017-Sep-16 13:58N 59°12' E 010°57'0 0.0
2017-Sep-16 13:28N 59°12' E 010°57'0 0.0
2017-Sep-16 12:58N 59°12' E 010°57'0 0.0
2017-Sep-16 12:28N 59°12' E 010°57'0 0.0
2017-Sep-16 11:58N 59°12' E 010°57'0 0.0
2017-Sep-16 11:28N 59°12' E 010°57'0 0.0
2017-Sep-16 10:58N 59°12' E 010°57'0 0.0
2017-Sep-16 10:28N 59°12' E 010°57'0 0.0
2017-Sep-16 09:58N 59°12' E 010°57'0 0.0
2017-Sep-16 09:28N 59°12' E 010°57'0 0.0
2017-Sep-16 08:58N 59°12' E 010°57'0 0.0
2017-Sep-16 08:28N 59°12' E 010°57'0 0.0
2017-Sep-16 07:58N 59°12' E 010°57'0 0.0
2017-Sep-16 07:28N 59°12' E 010°57'0 0.0
2017-Sep-16 06:58N 59°12' E 010°57'0 0.0
2017-Sep-16 06:28N 59°12' E 010°57'0 0.0
2017-Sep-16 05:58N 59°12' E 010°57'0 0.0
2017-Sep-16 05:28N 59°12' E 010°57'0 0.0
2017-Sep-16 04:58N 59°12' E 010°57'0 0.0
2017-Sep-16 04:28N 59°12' E 010°57'0 0.0
2017-Sep-16 03:58N 59°12' E 010°57'0 0.0
2017-Sep-16 03:28N 59°12' E 010°57'0 0.0
2017-Sep-16 02:58N 59°12' E 010°57'0 0.0
2017-Sep-16 02:28N 59°12' E 010°57'0 0.0
2017-Sep-16 01:58N 59°12' E 010°57'0 0.0
2017-Sep-16 01:28N 59°12' E 010°57'0 0.0
2017-Sep-16 00:58N 59°12' E 010°57'0 0.0
2017-Sep-16 00:28N 59°12' E 010°57'0 0.0
2017-Sep-15 23:58N 59°12' E 010°57'0 0.0
2017-Sep-15 23:28N 59°12' E 010°57'0 0.0
2017-Sep-15 22:58N 59°12' E 010°57'0 0.0
2017-Sep-15 22:28N 59°12' E 010°57'0 0.0
2017-Sep-15 21:58N 59°12' E 010°57'0 0.0
2017-Sep-15 21:28N 59°12' E 010°57'0 0.0
2017-Sep-15 20:58N 59°12' E 010°57'0 0.0
2017-Sep-15 20:28N 59°12' E 010°57'0 0.0
2017-Sep-15 19:58N 59°12' E 010°57'0 0.0
2017-Sep-15 19:28N 59°12' E 010°57'0 0.0
2017-Sep-15 18:58N 59°12' E 010°57'0 0.0
2017-Sep-15 18:28N 59°12' E 010°57'0 0.0
2017-Sep-15 17:58N 59°12' E 010°57'0 0.0
2017-Sep-15 17:28N 59°12' E 010°57'0 0.0
2017-Sep-15 16:58N 59°12' E 010°57'0 0.0
2017-Sep-15 16:28N 59°12' E 010°57'0 0.0
2017-Sep-15 15:58N 59°12' E 010°57'0 0.0
2017-Sep-15 15:28N 59°12' E 010°57'0 0.0
2017-Sep-15 14:58N 59°12' E 010°57'0 0.0
2017-Sep-15 14:28N 59°12' E 010°57'0 0.0
2017-Sep-15 13:58N 59°12' E 010°57'0 0.0
2017-Sep-15 13:28N 59°12' E 010°57'0 0.0
2017-Sep-15 12:58N 59°12' E 010°57'0 0.0
2017-Sep-15 12:28N 59°12' E 010°57'0 0.0
2017-Sep-15 11:58N 59°12' E 010°57'0 0.0
2017-Sep-15 11:28N 59°12' E 010°57'0 0.0
2017-Sep-15 10:55N 59°12' E 010°57'0 0.0
2017-Sep-15 10:28N 59°12' E 010°57'0 0.0
2017-Sep-15 09:58N 59°12' E 010°57'0 0.0
2017-Sep-15 09:28N 59°12' E 010°57'0 0.0
2017-Sep-15 08:58N 59°12' E 010°57'0 0.0
2017-Sep-15 08:28N 59°12' E 010°57'0 0.0
2017-Sep-15 07:58N 59°12' E 010°57'0 0.0
2017-Sep-15 07:28N 59°12' E 010°57'0 0.0
2017-Sep-15 06:58N 59°12' E 010°57'0 0.0
2017-Sep-15 06:28N 59°12' E 010°57'0 0.0
2017-Sep-15 05:58N 59°12' E 010°57'0 0.0
2017-Sep-15 05:28N 59°12' E 010°57'0 0.0
2017-Sep-15 04:58N 59°12' E 010°57'0 0.0
2017-Sep-15 04:28N 59°12' E 010°57'0 0.0
2017-Sep-15 03:58N 59°12' E 010°57'0 0.0
2017-Sep-15 03:28N 59°12' E 010°57'0 0.0
2017-Sep-15 02:58N 59°12' E 010°57'0 0.0
2017-Sep-15 02:28N 59°12' E 010°57'0 0.0
2017-Sep-15 01:58N 59°12' E 010°57'0 0.0
2017-Sep-15 01:28N 59°12' E 010°57'0 0.0
2017-Sep-15 00:58N 59°12' E 010°57'0 0.0
2017-Sep-15 00:28N 59°12' E 010°57'0 0.0
2017-Sep-14 23:58N 59°12' E 010°57'0 0.0
2017-Sep-14 23:28N 59°12' E 010°57'0 0.0
2017-Sep-14 22:58N 59°12' E 010°57'0 0.0
2017-Sep-14 22:28N 59°12' E 010°57'0 0.0
2017-Sep-14 21:58N 59°12' E 010°57'0 0.0
2017-Sep-14 21:28N 59°12' E 010°57'0 0.0
2017-Sep-14 20:58N 59°12' E 010°57'0 0.0
2017-Sep-14 20:28N 59°12' E 010°57'0 0.0
2017-Sep-14 19:58N 59°12' E 010°57'0 0.0
2017-Sep-14 19:28N 59°12' E 010°57'0 0.0
2017-Sep-14 19:01N 59°12' E 010°57'0 0.0
2017-Sep-14 18:28N 59°12' E 010°57'0 0.0
2017-Sep-14 18:01N 59°12' E 010°57'0 0.0
2017-Sep-14 17:31N 59°12' E 010°57'0 0.0
2017-Sep-14 16:58N 59°12' E 010°57'0 0.0
2017-Sep-14 16:28N 59°12' E 010°57'0 0.0
2017-Sep-14 16:01N 59°12' E 010°57'0 0.0
2017-Sep-14 15:31N 59°12' E 010°57'0 0.0
2017-Sep-14 15:00N 59°12' E 010°57'0 0.0
2017-Sep-14 14:30N 59°12' E 010°57'0 0.0
2017-Sep-14 14:01N 59°12' E 010°57'0 0.0
2017-Sep-14 13:30N 59°12' E 010°57'0 0.0
2017-Sep-14 13:00N 59°12' E 010°57'0 0.0
2017-Sep-14 12:30N 59°12' E 010°57'0 0.0
2017-Sep-14 12:00N 59°12' E 010°57'0 0.0
2017-Sep-14 11:30N 59°12' E 010°57'0 0.0
2017-Sep-14 11:00N 59°12' E 010°57'0 0.0
2017-Sep-14 10:30N 59°12' E 010°57'0 0.0
2017-Sep-14 10:00N 59°12' E 010°57'0 0.0
2017-Sep-14 09:30N 59°12' E 010°57'0 0.0
2017-Sep-14 09:00N 59°12' E 010°57'0 0.0
2017-Sep-14 08:30N 59°12' E 010°57'0 0.0
2017-Sep-14 08:00N 59°12' E 010°57'0 0.0
2017-Sep-14 07:30N 59°12' E 010°57'0 0.3
2017-Sep-14 07:00N 59°12' E 010°57'2 3.1
2017-Sep-14 06:30N 59°11' E 010°57'3 6.3
2017-Sep-14 06:00N 59°08' E 010°58'4 7.2
2017-Sep-14 05:30N 59°04' E 010°58'3 6.1
2017-Sep-14 05:00N 59°01' E 010°56'2 4.7
2017-Sep-14 04:30N 59°01' E 010°52'3 5.1
2017-Sep-14 04:00N 59°02' E 010°47'2 4.8
2017-Sep-14 03:30N 59°01' E 010°43'2 4.9
2017-Sep-14 03:00N 58°59' E 010°40'2 5.0
2017-Sep-14 02:30N 58°57' E 010°37'3 5.1
2017-Sep-14 02:00N 58°55' E 010°33'2 4.9
2017-Sep-14 01:30N 58°54' E 010°30'2 5.0
2017-Sep-14 01:00N 58°52' E 010°27'3 5.5
2017-Sep-14 00:30N 58°49' E 010°24'3 5.1
2017-Sep-14 00:00N 58°47' E 010°21'2 4.9
2017-Sep-13 23:30N 58°46' E 010°17'2 4.8
2017-Sep-13 23:00N 58°45' E 010°13'3 4.7
2017-Sep-13 22:23N 58°43' E 010°09'3 4.9
2017-Sep-13 21:44N 58°40' E 010°05'1 2.5
2017-Sep-13 21:28N 58°40' E 010°05'2 1.2
2017-Sep-13 19:33N 58°40' E 010°09'0 0.8
2017-Sep-13 19:29N 58°40' E 010°09'0 0.8
2017-Sep-13 19:00N 58°40' E 010°09'0 0.8
2017-Sep-13 18:30N 58°40' E 010°10'0 0.8
2017-Sep-13 18:00N 58°40' E 010°11'2 3.5
2017-Sep-13 17:30N 58°38' E 010°12'2 4.4
2017-Sep-13 16:59N 58°36' E 010°14'31 5.0
2017-Sep-13 10:45N 58°08' E 010°37'2 5.2
2017-Sep-13 10:26N 58°06' E 010°38'2 5.1
2017-Sep-13 09:59N 58°04' E 010°39'2 4.7
2017-Sep-13 09:30N 58°02' E 010°41'2 4.4
2017-Sep-13 09:00N 58°00' E 010°43'2 4.2
2017-Sep-13 08:28N 57°59' E 010°46'2 4.1
2017-Sep-13 08:00N 57°57' E 010°49'2 3.8
2017-Sep-13 07:30N 57°56' E 010°51'1 2.7
2017-Sep-13 07:00N 57°55' E 010°53'1 2.4
2017-Sep-13 06:29N 57°54' E 010°54'1 2.5
2017-Sep-13 05:59N 57°53' E 010°55'1 2.6
2017-Sep-13 05:30N 57°52' E 010°56'1 2.7
2017-Sep-13 05:00N 57°50' E 010°58'2 3.2
2017-Sep-13 04:30N 57°49' E 010°59'2 3.9
2017-Sep-13 03:59N 57°47' E 011°01'2 4.1
2017-Sep-13 03:30N 57°46' E 011°03'2 3.8
2017-Sep-13 03:00N 57°44' E 011°05'2 3.9
2017-Sep-13 02:30N 57°43' E 011°08'2 4.0
2017-Sep-13 02:00N 57°41' E 011°09'2 3.9
2017-Sep-13 01:30N 57°39' E 011°11'2 4.0
2017-Sep-13 01:00N 57°38' E 011°13'2 4.0
2017-Sep-13 00:30N 57°36' E 011°16'2 4.1
2017-Sep-13 00:00N 57°35' E 011°18'2 4.2
2017-Sep-12 23:30N 57°33' E 011°20'1 2.7
2017-Sep-12 23:00N 57°34' E 011°19'2 3.9
2017-Sep-12 22:30N 57°35' E 011°16'2 3.6
2017-Sep-12 22:00N 57°37' E 011°15'2 4.4
2017-Sep-12 21:30N 57°38' E 011°12'2 4.4
2017-Sep-12 21:00N 57°40' E 011°10'2 3.2
2017-Sep-12 20:30N 57°42' E 011°09'2 3.1
2017-Sep-12 20:00N 57°43' E 011°08'2 3.1
2017-Sep-12 19:30N 57°44' E 011°06'1 2.9
2017-Sep-12 19:00N 57°46' E 011°04'1 2.8
2017-Sep-12 18:30N 57°47' E 011°03'2 2.9
2017-Sep-12 18:00N 57°48' E 011°01'2 3.8
2017-Sep-12 17:30N 57°49' E 010°59'2 3.9
2017-Sep-12 17:00N 57°51' E 010°56'2 3.9
2017-Sep-12 16:29N 57°52' E 010°54'2 3.7
2017-Sep-12 15:59N 57°54' E 010°52'2 3.7
2017-Sep-12 15:30N 57°55' E 010°50'2 3.6
2017-Sep-12 15:00N 57°57' E 010°48'1 2.9
2017-Sep-12 14:29N 57°58' E 010°46'1 1.4
2017-Sep-12 13:58N 57°58' E 010°45'1 2.3
2017-Sep-12 13:30N 57°58' E 010°47'1 2.3
2017-Sep-12 12:54N 57°58' E 010°49'1 2.4
2017-Sep-12 12:27N 57°58' E 010°51'1 2.5
2017-Sep-12 12:00N 57°58' E 010°53'2 4.0
2017-Sep-12 11:30N 57°56' E 010°56'2 4.9
2017-Sep-12 11:00N 57°54' E 010°58'3 5.3
2017-Sep-12 10:30N 57°51' E 010°59'3 5.0
2017-Sep-12 09:59N 57°49' E 011°01'2 4.9
2017-Sep-12 09:30N 57°47' E 011°03'3 4.8
2017-Sep-12 08:59N 57°45' E 011°05'2 4.9
2017-Sep-12 08:30N 57°42' E 011°07'3 5.3
2017-Sep-12 08:00N 57°40' E 011°09'2 4.8
2017-Sep-12 07:30N 57°38' E 011°12'2 4.5
2017-Sep-12 06:59N 57°36' E 011°14'2 4.5
2017-Sep-12 06:30N 57°35' E 011°17'2 4.5
2017-Sep-12 06:00N 57°33' E 011°20'1 2.1
2017-Sep-12 05:30N 57°34' E 011°19'2 3.1
2017-Sep-12 05:00N 57°35' E 011°17'2 3.4
2017-Sep-12 04:29N 57°36' E 011°15'1 2.8
2017-Sep-12 04:00N 57°38' E 011°13'1 2.5
2017-Sep-12 03:30N 57°39' E 011°12'1 2.6
2017-Sep-12 03:00N 57°40' E 011°10'1 2.6
2017-Sep-12 02:29N 57°41' E 011°09'1 2.3
2017-Sep-12 02:00N 57°42' E 011°07'1 2.3
2017-Sep-12 01:30N 57°42' E 011°06'1 2.1
2017-Sep-12 01:00N 57°43' E 011°06'1 1.8
2017-Sep-12 00:30N 57°44' E 011°06'1 1.6
2017-Sep-12 00:00N 57°45' E 011°05'1 2.1
2017-Sep-11 23:29N 57°46' E 011°06'1 2.5
2017-Sep-11 23:00N 57°47' E 011°06'1 2.7
2017-Sep-11 22:30N 57°49' E 011°06'1 2.6
2017-Sep-11 22:00N 57°50' E 011°05'1 1.9
2017-Sep-11 21:30N 57°50' E 011°04'1 2.4
2017-Sep-11 21:00N 57°51' E 011°02'2 3.0
2017-Sep-11 20:30N 57°52' E 010°59'  
Track history (hours):
 
Tides and Currents Weather Stations Pressure Air Temp Water Temp Dewpoint Dewpoint Depression Visibility Wind Speed Wind Dir Waves Ship Positions

Mir (Russia)

Last reported at 2017-Sep-21 20:01 UTC. Time now 2017-Sep-23 09:32 UTC.
Position N 54°47' E 015°20'.

Length 109 m; draft 6.3 m.

Type: Sailing vessel. MMSI: 273133800.

Date/timePositionNaut miles runAvg speedWind from/ knotsBaromVisibWave heightAir tempDewpointWater temp
2017-Sep-21 20:01N 54°47' E 015°20'0 4.4
2017-Sep-21 20:00N 54°47' E 015°20'2 4.5
2017-Sep-21 19:29N 54°45' E 015°17'2 4.7
2017-Sep-21 18:59N 54°44' E 015°14'7 1.0
2017-Sep-21 12:24N 54°43' E 015°03'2 3.9
2017-Sep-21 11:58N 54°43' E 015°00'3 4.7
2017-Sep-21 11:26N 54°42' E 014°56'62 5.3
2017-Sep-20 23:37N 54°47' E 013°09'1 3.3
2017-Sep-20 23:21N 54°47' E 013°07'13 3.8
2017-Sep-20 20:02N 54°44' E 012°46'0 4.4
2017-Sep-20 20:00N 54°44' E 012°46'7 5.0
2017-Sep-20 18:32N 54°41' E 012°34'0 5.8
2017-Sep-20 18:30N 54°40' E 012°34'3 6.0
2017-Sep-20 18:00N 54°38' E 012°31'4 7.0
2017-Sep-20 17:30N 54°36' E 012°27'10 6.4
2017-Sep-20 16:02N 54°29' E 012°15'0 6.6
2017-Sep-20 16:00N 54°29' E 012°15'3 6.2
2017-Sep-20 15:30N 54°26' E 012°12'3 5.1
2017-Sep-20 15:00N 54°25' E 012°08'10 6.1
2017-Sep-20 13:17N 54°24' E 011°50'2 6.6
2017-Sep-20 13:00N 54°24' E 011°47'4 7.2
2017-Sep-20 12:30N 54°25' E 011°41'3 6.5
2017-Sep-20 12:00N 54°27' E 011°37'3 6.6
2017-Sep-20 11:30N 54°28' E 011°32'3 5.8
2017-Sep-20 11:00N 54°30' E 011°27'3 6.0
2017-Sep-20 10:30N 54°31' E 011°23'3 6.4
2017-Sep-20 09:59N 54°33' E 011°18'3 7.1
2017-Sep-20 09:30N 54°34' E 011°12'3 6.5
2017-Sep-20 09:00N 54°36' E 011°07'3 6.9
2017-Sep-20 08:30N 54°38' E 011°02'3 6.9
2017-Sep-20 08:00N 54°40' E 010°58'3 6.4
2017-Sep-20 07:30N 54°42' E 010°53'3 5.1
2017-Sep-20 07:00N 54°44' E 010°52'3 6.5
2017-Sep-20 06:30N 54°47' E 010°52'3 6.4
2017-Sep-20 06:00N 54°50' E 010°52'3 6.0
2017-Sep-20 05:30N 54°53' E 010°53'3 5.7
2017-Sep-20 05:00N 54°56' E 010°55'3 5.7
2017-Sep-20 04:30N 54°58' E 010°58'3 5.9
2017-Sep-20 04:00N 55°01' E 011°01'2 4.4
2017-Sep-20 03:30N 55°03' E 011°01'3 5.5
2017-Sep-20 03:00N 55°06' E 011°02'3 6.3
2017-Sep-20 02:30N 55°09' E 011°03'3 6.0
2017-Sep-20 02:00N 55°12' E 011°05'110 5.8
2017-Sep-19 06:55N 56°60' E 011°42'4 8.4
2017-Sep-19 06:27N 57°03' E 011°40'4 8.8
2017-Sep-19 06:00N 57°07' E 011°37'4 8.7
2017-Sep-19 05:30N 57°11' E 011°35'4 8.4
2017-Sep-19 05:00N 57°15' E 011°32'4 7.6
2017-Sep-19 04:30N 57°19' E 011°29'4 7.3
2017-Sep-19 04:00N 57°22' E 011°27'4 7.8
2017-Sep-19 03:30N 57°26' E 011°24'4 7.3
2017-Sep-19 03:00N 57°29' E 011°21'4 7.2
2017-Sep-19 02:29N 57°32' E 011°18'4 7.8
2017-Sep-19 01:59N 57°36' E 011°15'4 8.0
2017-Sep-19 01:30N 57°39' E 011°11'4 7.6
2017-Sep-19 01:00N 57°42' E 011°06'4 7.0
2017-Sep-19 00:29N 57°45' E 011°02'3 6.2
2017-Sep-19 00:00N 57°47' E 010°59'3 6.6
2017-Sep-18 23:30N 57°50' E 010°55'3 6.8
2017-Sep-18 23:00N 57°53' E 010°52'3 6.1
2017-Sep-18 22:30N 57°55' E 010°49'3 5.7
2017-Sep-18 21:57N 57°58' E 010°45'3 5.7
2017-Sep-18 21:25N 58°00' E 010°41'18 6.1
2017-Sep-18 18:27N 58°15' E 010°23'3 0.5
2017-Sep-18 12:47N 58°16' E 010°18'0 0.4
2017-Sep-18 12:20N 58°16' E 010°18'0 0.2
2017-Sep-18 11:54N 58°16' E 010°18'1 0.2
2017-Sep-18 09:46N 58°16' E 010°17'1 0.4
2017-Sep-18 08:01N 58°15' E 010°19'0 0.4
2017-Sep-18 08:00N 58°15' E 010°19'0 0.5
2017-Sep-18 07:02N 58°15' E 010°19'0 0.5
2017-Sep-18 06:59N 58°15' E 010°19'0 0.5
2017-Sep-18 06:25N 58°16' E 010°20'1 0.7
2017-Sep-18 05:07N 58°16' E 010°22'0 1.6
2017-Sep-18 05:00N 58°16' E 010°22'1 1.7
2017-Sep-18 04:17N 58°17' E 010°22'1 2.2
2017-Sep-18 03:50N 58°18' E 010°22'1 2.5
2017-Sep-18 03:27N 58°19' E 010°22'1 2.4
2017-Sep-18 03:00N 58°20' E 010°22'1 2.5
2017-Sep-18 02:30N 58°21' E 010°22'2 2.4
2017-Sep-18 01:52N 58°23' E 010°22'1 2.6
2017-Sep-18 01:30N 58°24' E 010°23'2 2.8
2017-Sep-18 00:58N 58°25' E 010°23'4 3.3
2017-Sep-17 23:39N 58°30' E 010°23'5 3.5
2017-Sep-17 22:19N 58°34' E 010°22'1 3.1
2017-Sep-17 21:59N 58°35' E 010°22'1 2.8
2017-Sep-17 21:29N 58°37' E 010°22'1 2.7
2017-Sep-17 21:00N 58°38' E 010°22'1 2.6
2017-Sep-17 20:30N 58°39' E 010°22'1 1.6
2017-Sep-17 20:00N 58°40' E 010°23'1 1.3
2017-Sep-17 19:30N 58°41' E 010°22'1 1.9
2017-Sep-17 19:00N 58°42' E 010°23'1 2.3
2017-Sep-17 18:30N 58°43' E 010°23'0 0.8
2017-Sep-17 18:00N 58°43' E 010°24'0 0.7
2017-Sep-17 17:30N 58°43' E 010°24'0 0.5
2017-Sep-17 17:00N 58°43' E 010°25'0 0.2
2017-Sep-17 16:30N 58°43' E 010°25'0 0.3
2017-Sep-17 16:00N 58°43' E 010°25'1 1.4
2017-Sep-17 15:30N 58°44' E 010°26'4 8.1
2017-Sep-17 15:00N 58°47' E 010°29'4 8.1
2017-Sep-17 14:30N 58°51' E 010°33'4 8.3
2017-Sep-17 14:00N 58°54' E 010°37'4 8.4
2017-Sep-17 13:30N 58°58' E 010°41'4 8.0
2017-Sep-17 13:00N 59°02' E 010°44'4 7.5
2017-Sep-17 12:30N 59°01' E 010°52'3 6.8
2017-Sep-17 12:00N 59°02' E 010°58'4 7.6
2017-Sep-17 11:30N 59°06' E 010°58'4 7.4
2017-Sep-17 11:00N 59°09' E 010°58'2 4.7
2017-Sep-17 10:30N 59°12' E 010°57'1 1.1
2017-Sep-17 09:58N 59°12' E 010°57'0 0.0
2017-Sep-17 09:28N 59°12' E 010°57'0 0.0
2017-Sep-17 08:58N 59°12' E 010°57'0 0.0
2017-Sep-17 08:28N 59°12' E 010°57'0 0.0
2017-Sep-17 07:58N 59°12' E 010°57'0 0.0
2017-Sep-17 07:28N 59°12' E 010°57'0 0.0
2017-Sep-17 06:58N 59°12' E 010°57'0 0.0
2017-Sep-17 06:28N 59°12' E 010°57'0 0.0
2017-Sep-17 05:58N 59°12' E 010°57'0 0.0
2017-Sep-17 05:28N 59°12' E 010°57'0 0.0
2017-Sep-17 04:58N 59°12' E 010°57'0 0.0
2017-Sep-17 04:28N 59°12' E 010°57'0 0.0
2017-Sep-17 03:58N 59°12' E 010°57'0 0.0
2017-Sep-17 03:28N 59°12' E 010°57'0 0.0
2017-Sep-17 02:58N 59°12' E 010°57'0 0.0
2017-Sep-17 02:28N 59°12' E 010°57'0 0.0
2017-Sep-17 01:58N 59°12' E 010°57'0 0.0
2017-Sep-17 01:28N 59°12' E 010°57'0 0.0
2017-Sep-17 00:58N 59°12' E 010°57'0 0.0
2017-Sep-17 00:28N 59°12' E 010°57'0 0.0
2017-Sep-16 23:58N 59°12' E 010°57'0 0.0
2017-Sep-16 23:28N 59°12' E 010°57'0 0.0
2017-Sep-16 22:58N 59°12' E 010°57'0 0.0
2017-Sep-16 22:28N 59°12' E 010°57'0 0.0
2017-Sep-16 21:55N 59°12' E 010°57'0 0.0
2017-Sep-16 21:28N 59°12' E 010°57'0 0.0
2017-Sep-16 20:58N 59°12' E 010°57'0 0.0
2017-Sep-16 20:28N 59°12' E 010°57'0 0.0
2017-Sep-16 19:58N 59°12' E 010°57'0 0.0
2017-Sep-16 19:28N 59°12' E 010°57'0 0.0
2017-Sep-16 18:58N 59°12' E 010°57'0 0.0
2017-Sep-16 18:28N 59°12' E 010°57'0 0.0
2017-Sep-16 17:58N 59°12' E 010°57'0 0.0
2017-Sep-16 17:28N 59°12' E 010°57'0 0.0
2017-Sep-16 16:58N 59°12' E 010°57'0 0.0
2017-Sep-16 16:28N 59°12' E 010°57'0 0.0
2017-Sep-16 15:58N 59°12' E 010°57'0 0.0
2017-Sep-16 15:28N 59°12' E 010°57'0 0.0
2017-Sep-16 14:58N 59°12' E 010°57'0 0.0
2017-Sep-16 14:28N 59°12' E 010°57'0 0.0
2017-Sep-16 13:58N 59°12' E 010°57'0 0.0
2017-Sep-16 13:28N 59°12' E 010°57'0 0.0
2017-Sep-16 12:58N 59°12' E 010°57'0 0.0
2017-Sep-16 12:28N 59°12' E 010°57'0 0.0
2017-Sep-16 11:58N 59°12' E 010°57'0 0.0
2017-Sep-16 11:28N 59°12' E 010°57'0 0.0
2017-Sep-16 10:58N 59°12' E 010°57'0 0.0
2017-Sep-16 10:28N 59°12' E 010°57'0 0.0
2017-Sep-16 09:58N 59°12' E 010°57'0 0.0
2017-Sep-16 09:28N 59°12' E 010°57'0 0.0
2017-Sep-16 08:58N 59°12' E 010°57'0 0.0
2017-Sep-16 08:28N 59°12' E 010°57'0 0.0
2017-Sep-16 07:58N 59°12' E 010°57'0 0.0
2017-Sep-16 07:28N 59°12' E 010°57'0 0.0
2017-Sep-16 06:58N 59°12' E 010°57'0 0.0
2017-Sep-16 06:28N 59°12' E 010°57'0 0.0
2017-Sep-16 05:58N 59°12' E 010°57'0 0.0
2017-Sep-16 05:28N 59°12' E 010°57'0 0.0
2017-Sep-16 04:58N 59°12' E 010°57'0 0.0
2017-Sep-16 04:28N 59°12' E 010°57'0 0.0
2017-Sep-16 03:58N 59°12' E 010°57'0 0.0
2017-Sep-16 03:28N 59°12' E 010°57'0 0.0
2017-Sep-16 02:58N 59°12' E 010°57'0 0.0
2017-Sep-16 02:28N 59°12' E 010°57'0 0.0
2017-Sep-16 01:58N 59°12' E 010°57'0 0.0
2017-Sep-16 01:28N 59°12' E 010°57'0 0.0
2017-Sep-16 00:58N 59°12' E 010°57'0 0.0
2017-Sep-16 00:28N 59°12' E 010°57'0 0.0
2017-Sep-15 23:58N 59°12' E 010°57'0 0.0
2017-Sep-15 23:28N 59°12' E 010°57'0 0.0
2017-Sep-15 22:58N 59°12' E 010°57'0 0.0
2017-Sep-15 22:28N 59°12' E 010°57'0 0.0
2017-Sep-15 21:58N 59°12' E 010°57'0 0.0
2017-Sep-15 21:28N 59°12' E 010°57'0 0.0
2017-Sep-15 20:58N 59°12' E 010°57'0 0.0
2017-Sep-15 20:28N 59°12' E 010°57'0 0.0
2017-Sep-15 19:58N 59°12' E 010°57'0 0.0
2017-Sep-15 19:28N 59°12' E 010°57'0 0.0
2017-Sep-15 18:58N 59°12' E 010°57'0 0.0
2017-Sep-15 18:28N 59°12' E 010°57'0 0.0
2017-Sep-15 17:58N 59°12' E 010°57'0 0.0
2017-Sep-15 17:28N 59°12' E 010°57'0 0.0
2017-Sep-15 16:58N 59°12' E 010°57'0 0.0
2017-Sep-15 16:28N 59°12' E 010°57'0 0.0
2017-Sep-15 15:58N 59°12' E 010°57'0 0.0
2017-Sep-15 15:28N 59°12' E 010°57'0 0.0
2017-Sep-15 14:58N 59°12' E 010°57'0 0.0
2017-Sep-15 14:28N 59°12' E 010°57'0 0.0
2017-Sep-15 13:58N 59°12' E 010°57'0 0.0
2017-Sep-15 13:28N 59°12' E 010°57'0 0.0
2017-Sep-15 12:58N 59°12' E 010°57'0 0.0
2017-Sep-15 12:28N 59°12' E 010°57'0 0.0
2017-Sep-15 11:58N 59°12' E 010°57'0 0.0
2017-Sep-15 11:28N 59°12' E 010°57'0 0.0
2017-Sep-15 10:55N 59°12' E 010°57'0 0.0
2017-Sep-15 10:28N 59°12' E 010°57'0 0.0
2017-Sep-15 09:58N 59°12' E 010°57'0 0.0
2017-Sep-15 09:28N 59°12' E 010°57'0 0.0
2017-Sep-15 08:58N 59°12' E 010°57'0 0.0
2017-Sep-15 08:28N 59°12' E 010°57'0 0.0
2017-Sep-15 07:58N 59°12' E 010°57'0 0.0
2017-Sep-15 07:28N 59°12' E 010°57'0 0.0
2017-Sep-15 06:58N 59°12' E 010°57'0 0.0
2017-Sep-15 06:28N 59°12' E 010°57'0 0.0
2017-Sep-15 05:58N 59°12' E 010°57'0 0.0
2017-Sep-15 05:28N 59°12' E 010°57'0 0.0
2017-Sep-15 04:58N 59°12' E 010°57'0 0.0
2017-Sep-15 04:28N 59°12' E 010°57'0 0.0
2017-Sep-15 03:58N 59°12' E 010°57'0 0.0
2017-Sep-15 03:28N 59°12' E 010°57'0 0.0
2017-Sep-15 02:58N 59°12' E 010°57'0 0.0
2017-Sep-15 02:28N 59°12' E 010°57'0 0.0
2017-Sep-15 01:58N 59°12' E 010°57'0 0.0
2017-Sep-15 01:28N 59°12' E 010°57'0 0.0
2017-Sep-15 00:58N 59°12' E 010°57'0 0.0
2017-Sep-15 00:28N 59°12' E 010°57'0 0.0
2017-Sep-14 23:58N 59°12' E 010°57'0 0.0
2017-Sep-14 23:28N 59°12' E 010°57'0 0.0
2017-Sep-14 22:58N 59°12' E 010°57'0 0.0
2017-Sep-14 22:28N 59°12' E 010°57'0 0.0
2017-Sep-14 21:58N 59°12' E 010°57'0 0.0
2017-Sep-14 21:28N 59°12' E 010°57'0 0.0
2017-Sep-14 20:58N 59°12' E 010°57'0 0.0
2017-Sep-14 20:28N 59°12' E 010°57'0 0.0
2017-Sep-14 19:58N 59°12' E 010°57'0 0.0
2017-Sep-14 19:28N 59°12' E 010°57'0 0.0
2017-Sep-14 19:01N 59°12' E 010°57'0 0.0
2017-Sep-14 18:28N 59°12' E 010°57'0 0.0
2017-Sep-14 18:01N 59°12' E 010°57'0 0.0
2017-Sep-14 17:31N 59°12' E 010°57'0 0.0
2017-Sep-14 16:58N 59°12' E 010°57'0 0.0
2017-Sep-14 16:28N 59°12' E 010°57'0 0.0
2017-Sep-14 16:01N 59°12' E 010°57'0 0.0
2017-Sep-14 15:31N 59°12' E 010°57'0 0.0
2017-Sep-14 15:00N 59°12' E 010°57'0 0.0
2017-Sep-14 14:30N 59°12' E 010°57'0 0.0
2017-Sep-14 14:01N 59°12' E 010°57'0 0.0
2017-Sep-14 13:30N 59°12' E 010°57'0 0.0
2017-Sep-14 13:00N 59°12' E 010°57'0 0.0
2017-Sep-14 12:30N 59°12' E 010°57'0 0.0
2017-Sep-14 12:00N 59°12' E 010°57'0 0.0
2017-Sep-14 11:30N 59°12' E 010°57'0 0.0
2017-Sep-14 11:00N 59°12' E 010°57'0 0.0
2017-Sep-14 10:30N 59°12' E 010°57'0 0.0
2017-Sep-14 10:00N 59°12' E 010°57'0 0.0
2017-Sep-14 09:30N 59°12' E 010°57'0 0.0
2017-Sep-14 09:00N 59°12' E 010°57'0 0.0
2017-Sep-14 08:30N 59°12' E 010°57'0 0.0
2017-Sep-14 08:00N 59°12' E 010°57'0 0.0
2017-Sep-14 07:30N 59°12' E 010°57'0 0.3
2017-Sep-14 07:00N 59°12' E 010°57'2 3.1
2017-Sep-14 06:30N 59°11' E 010°57'3 6.3
2017-Sep-14 06:00N 59°08' E 010°58'4 7.2
2017-Sep-14 05:30N 59°04' E 010°58'3 6.1
2017-Sep-14 05:00N 59°01' E 010°56'2 4.7
2017-Sep-14 04:30N 59°01' E 010°52'3 5.1
2017-Sep-14 04:00N 59°02' E 010°47'2 4.8
2017-Sep-14 03:30N 59°01' E 010°43'2 4.9
2017-Sep-14 03:00N 58°59' E 010°40'2 5.0
2017-Sep-14 02:30N 58°57' E 010°37'3 5.1
2017-Sep-14 02:00N 58°55' E 010°33'2 4.9
2017-Sep-14 01:30N 58°54' E 010°30'2 5.0
2017-Sep-14 01:00N 58°52' E 010°27'3 5.5
2017-Sep-14 00:30N 58°49' E 010°24'3 5.1
2017-Sep-14 00:00N 58°47' E 010°21'2 4.9
2017-Sep-13 23:30N 58°46' E 010°17'2 4.8
2017-Sep-13 23:00N 58°45' E 010°13'3 4.7
2017-Sep-13 22:23N 58°43' E 010°09'3 4.9
2017-Sep-13 21:44N 58°40' E 010°05'1 2.5
2017-Sep-13 21:28N 58°40' E 010°05'2 1.2
2017-Sep-13 19:33N 58°40' E 010°09'0 0.8
2017-Sep-13 19:29N 58°40' E 010°09'0 0.8
2017-Sep-13 19:00N 58°40' E 010°09'0 0.8
2017-Sep-13 18:30N 58°40' E 010°10'0 0.8
2017-Sep-13 18:00N 58°40' E 010°11'2 3.5
2017-Sep-13 17:30N 58°38' E 010°12'2 4.4
2017-Sep-13 16:59N 58°36' E 010°14'31 5.0
2017-Sep-13 10:45N 58°08' E 010°37'2 5.2
2017-Sep-13 10:26N 58°06' E 010°38'2 5.1
2017-Sep-13 09:59N 58°04' E 010°39'2 4.7
2017-Sep-13 09:30N 58°02' E 010°41'2 4.4
2017-Sep-13 09:00N 58°00' E 010°43'2 4.2
2017-Sep-13 08:28N 57°59' E 010°46'2 4.1
2017-Sep-13 08:00N 57°57' E 010°49'2 3.8
2017-Sep-13 07:30N 57°56' E 010°51'1 2.7
2017-Sep-13 07:00N 57°55' E 010°53'1 2.4
2017-Sep-13 06:29N 57°54' E 010°54'1 2.5
2017-Sep-13 05:59N 57°53' E 010°55'1 2.6
2017-Sep-13 05:30N 57°52' E 010°56'1 2.7
2017-Sep-13 05:00N 57°50' E 010°58'2 3.2
2017-Sep-13 04:30N 57°49' E 010°59'2 3.9
2017-Sep-13 03:59N 57°47' E 011°01'2 4.1
2017-Sep-13 03:30N 57°46' E 011°03'2 3.8
2017-Sep-13 03:00N 57°44' E 011°05'2 3.9
2017-Sep-13 02:30N 57°43' E 011°08'2 4.0
2017-Sep-13 02:00N 57°41' E 011°09'2 3.9
2017-Sep-13 01:30N 57°39' E 011°11'2 4.0
2017-Sep-13 01:00N 57°38' E 011°13'2 4.0
2017-Sep-13 00:30N 57°36' E 011°16'2 4.1
2017-Sep-13 00:00N 57°35' E 011°18'2 4.2
2017-Sep-12 23:30N 57°33' E 011°20'1 2.7
2017-Sep-12 23:00N 57°34' E 011°19'2 3.9
2017-Sep-12 22:30N 57°35' E 011°16'2 3.6
2017-Sep-12 22:00N 57°37' E 011°15'2 4.4
2017-Sep-12 21:30N 57°38' E 011°12'2 4.4
2017-Sep-12 21:00N 57°40' E 011°10'2 3.2
2017-Sep-12 20:30N 57°42' E 011°09'2 3.1
2017-Sep-12 20:00N 57°43' E 011°08'2 3.1
2017-Sep-12 19:30N 57°44' E 011°06'1 2.9
2017-Sep-12 19:00N 57°46' E 011°04'1 2.8
2017-Sep-12 18:30N 57°47' E 011°03'2 2.9
2017-Sep-12 18:00N 57°48' E 011°01'2 3.8
2017-Sep-12 17:30N 57°49' E 010°59'2 3.9
2017-Sep-12 17:00N 57°51' E 010°56'2 3.9
2017-Sep-12 16:29N 57°52' E 010°54'2 3.7
2017-Sep-12 15:59N 57°54' E 010°52'2 3.7
2017-Sep-12 15:30N 57°55' E 010°50'2 3.6
2017-Sep-12 15:00N 57°57' E 010°48'1 2.9
2017-Sep-12 14:29N 57°58' E 010°46'1 1.4
2017-Sep-12 13:58N 57°58' E 010°45'1 2.3
2017-Sep-12 13:30N 57°58' E 010°47'1 2.3
2017-Sep-12 12:54N 57°58' E 010°49'1 2.4
2017-Sep-12 12:27N 57°58' E 010°51'1 2.5
2017-Sep-12 12:00N 57°58' E 010°53'2 4.0
2017-Sep-12 11:30N 57°56' E 010°56'2 4.9
2017-Sep-12 11:00N 57°54' E 010°58'3 5.3
2017-Sep-12 10:30N 57°51' E 010°59'3 5.0
2017-Sep-12 09:59N 57°49' E 011°01'2 4.9
2017-Sep-12 09:30N 57°47' E 011°03'3 4.8
2017-Sep-12 08:59N 57°45' E 011°05'2 4.9
2017-Sep-12 08:30N 57°42' E 011°07'3 5.3
2017-Sep-12 08:00N 57°40' E 011°09'2 4.8
2017-Sep-12 07:30N 57°38' E 011°12'2 4.5
2017-Sep-12 06:59N 57°36' E 011°14'2 4.5
2017-Sep-12 06:30N 57°35' E 011°17'2 4.5
2017-Sep-12 06:00N 57°33' E 011°20'1 2.1
2017-Sep-12 05:30N 57°34' E 011°19'2 3.1
2017-Sep-12 05:00N 57°35' E 011°17'2 3.4
2017-Sep-12 04:29N 57°36' E 011°15'1 2.8
2017-Sep-12 04:00N 57°38' E 011°13'1 2.5
2017-Sep-12 03:30N 57°39' E 011°12'1 2.6
2017-Sep-12 03:00N 57°40' E 011°10'1 2.6
2017-Sep-12 02:29N 57°41' E 011°09'1 2.3
2017-Sep-12 02:00N 57°42' E 011°07'1 2.3
2017-Sep-12 01:30N 57°42' E 011°06'1 2.1
2017-Sep-12 01:00N 57°43' E 011°06'1 1.8
2017-Sep-12 00:30N 57°44' E 011°06'1 1.6
2017-Sep-12 00:00N 57°45' E 011°05'1 2.1
2017-Sep-11 23:29N 57°46' E 011°06'1 2.5
2017-Sep-11 23:00N 57°47' E 011°06'1 2.7
2017-Sep-11 22:30N 57°49' E 011°06'1 2.6
2017-Sep-11 22:00N 57°50' E 011°05'1 1.9
2017-Sep-11 21:30N 57°50' E 011°04'1 2.4
2017-Sep-11 21:00N 57°51' E 011°02'2 3.0
2017-Sep-11 20:30N 57°52' E 010°59'  

Dump ship's entire track history